Time;durP1;ratioP1;P1;durP2;ratioP2;P2;SDS_P1;SDS_P2;PMS_P1;PMS_P2;Temp;Humidity;BMP_temperature;BMP_pressure;BME280_temperature;BME280_humidity;BME280_pressure;Samples;Min_cycle;Max_cycle;Signal;HPM_P1;HPM_P2
2022/07/22 00:00:31;;;;;;;2.08;0.00;;;16.10;99.90;;;;;;5096553;28;20023;-73
2022/07/22 00:02:57;;;;;;;5.65;0.38;;;16.10;99.90;;;;;;5096281;28;20024;-73
2022/07/22 00:05:22;;;;;;;5.40;0.43;;;16.10;99.90;;;;;;5096313;28;20017;-73
2022/07/22 00:07:48;;;;;;;4.90;0.10;;;16.10;99.90;;;;;;5096173;28;20036;-73
2022/07/22 00:10:14;;;;;;;2.92;0.10;;;16.10;99.90;;;;;;5093498;28;20020;-73
2022/07/22 00:12:40;;;;;;;6.97;0.35;;;16.20;99.90;;;;;;5096003;28;20035;-73
2022/07/22 00:15:08;;;;;;;3.75;0.57;;;16.10;99.90;;;;;;5096587;28;20016;-73
2022/07/22 00:17:33;;;;;;;0.82;0.00;;;16.10;99.90;;;;;;5094681;28;20020;-73
2022/07/22 00:19:59;;;;;;;6.35;0.30;;;16.20;99.90;;;;;;5096088;28;20066;-73
2022/07/22 00:22:25;;;;;;;4.43;0.28;;;16.20;99.90;;;;;;5096482;28;20028;-73
2022/07/22 00:24:50;;;;;;;3.90;0.28;;;16.20;99.90;;;;;;5095893;28;20400;-73
2022/07/22 00:27:16;;;;;;;10.93;0.50;;;16.20;99.90;;;;;;5095883;28;20024;-73
2022/07/22 00:29:41;;;;;;;1.80;0.20;;;16.20;99.90;;;;;;5095632;28;20027;-73
2022/07/22 00:32:07;;;;;;;0.70;0.05;;;16.20;99.90;;;;;;5095719;28;20115;-73
2022/07/22 00:34:33;;;;;;;2.40;0.00;;;16.20;99.90;;;;;;5094526;28;20024;-73
2022/07/22 00:36:58;;;;;;;3.67;0.50;;;16.60;99.90;;;;;;5094422;28;20127;-73
2022/07/22 00:39:24;;;;;;;2.47;0.13;;;16.20;99.90;;;;;;5094261;28;20023;-73
2022/07/22 00:41:50;;;;;;;9.63;1.02;;;16.20;99.90;;;;;;5095900;28;20032;-73
2022/07/22 00:44:16;;;;;;;1.85;0.10;;;16.10;99.90;;;;;;5095769;28;20069;-73
2022/07/22 00:46:41;;;;;;;1.30;0.20;;;16.10;99.90;;;;;;5095447;28;20020;-73
2022/07/22 00:49:08;;;;;;;1.58;0.00;;;16.20;99.90;;;;;;5095396;28;20035;-73
2022/07/22 00:51:35;;;;;;;4.50;0.50;;;16.20;99.90;;;;;;5095542;28;20366;-73
2022/07/22 00:54:02;;;;;;;0.75;0.10;;;16.20;99.90;;;;;;5095839;28;20099;-73
2022/07/22 00:56:28;;;;;;;1.27;0.00;;;16.20;99.90;;;;;;5095248;28;20488;-73
2022/07/22 00:58:56;;;;;;;1.30;0.47;;;16.20;99.90;;;;;;5095166;28;20024;-73
2022/07/22 01:01:21;;;;;;;2.28;0.20;;;16.20;99.90;;;;;;5095120;28;20036;-73
2022/07/22 01:03:48;;;;;;;7.72;0.75;;;16.20;99.90;;;;;;5095385;28;20035;-74
2022/07/22 01:06:13;;;;;;;3.97;0.60;;;16.20;99.90;;;;;;5095371;28;20036;-74
2022/07/22 01:08:40;;;;;;;1.58;0.25;;;16.20;99.90;;;;;;5095125;28;20024;-74
2022/07/22 01:11:15;;;;;;;5.28;0.20;;;16.10;99.90;;;;;;5095751;28;20028;-74
2022/07/22 01:13:42;;;;;;;2.80;0.25;;;16.20;99.90;;;;;;5094113;28;20023;-74
2022/07/22 01:16:10;;;;;;;2.05;0.28;;;16.10;99.90;;;;;;5094969;28;20024;-74
2022/07/22 01:18:36;;;;;;;2.30;0.20;;;16.20;99.90;;;;;;5095301;28;20042;-74
2022/07/22 01:21:03;;;;;;;6.40;0.38;;;16.20;99.90;;;;;;5094538;28;20469;-74
2022/07/22 01:23:28;;;;;;;8.13;1.05;;;16.20;99.90;;;;;;5095497;28;20056;-74
2022/07/22 01:25:54;;;;;;;1.55;0.10;;;16.20;99.90;;;;;;5095145;28;20020;-74
2022/07/22 01:28:21;;;;;;;1.30;0.17;;;16.20;99.90;;;;;;5094994;28;20017;-74
2022/07/22 01:30:49;;;;;;;4.45;0.00;;;16.20;99.90;;;;;;5094593;28;20035;-74
2022/07/22 01:33:16;;;;;;;1.53;0.10;;;16.10;99.90;;;;;;5094794;28;20017;-74
2022/07/22 01:35:41;;;;;;;1.60;0.20;;;16.10;99.90;;;;;;5094683;28;20107;-74
2022/07/22 01:38:07;;;;;;;0.95;0.00;;;16.10;99.90;;;;;;5095103;28;20093;-74
2022/07/22 01:40:33;;;;;;;8.85;0.30;;;16.10;99.90;;;;;;5094731;28;20020;-74
2022/07/22 01:42:58;;;;;;;1.65;0.00;;;16.20;99.90;;;;;;5095129;28;20059;-74
2022/07/22 01:45:24;;;;;;;2.75;0.03;;;16.10;99.90;;;;;;5094830;28;20046;-74
2022/07/22 01:47:50;;;;;;;6.38;0.65;;;16.20;99.90;;;;;;5094690;28;20028;-74
2022/07/22 01:50:15;;;;;;;1.85;0.32;;;16.40;99.90;;;;;;5094221;28;20083;-74
2022/07/22 01:52:42;;;;;;;3.45;0.00;;;16.10;99.90;;;;;;5092916;28;20016;-74
2022/07/22 01:55:09;;;;;;;1.38;0.00;;;16.10;99.90;;;;;;5094173;28;20028;-75
2022/07/22 01:57:36;;;;;;;5.75;0.00;;;16.10;99.90;;;;;;5092874;28;20024;-74
2022/07/22 02:00:03;;;;;;;0.10;0.03;;;16.10;99.90;;;;;;5094095;28;20491;-74
2022/07/22 02:02:28;;;;;;;3.83;0.25;;;16.10;99.90;;;;;;5094003;28;20031;-75
2022/07/22 02:04:54;;;;;;;3.97;0.08;;;16.00;99.90;;;;;;5092811;28;20035;-75
2022/07/22 02:07:19;;;;;;;5.25;0.00;;;16.10;99.90;;;;;;5092662;28;20496;-74
2022/07/22 02:09:45;;;;;;;4.35;0.00;;;16.10;99.90;;;;;;5093933;28;20028;-74
2022/07/22 02:12:10;;;;;;;1.90;0.17;;;16.10;99.90;;;;;;5093927;28;20024;-74
2022/07/22 02:14:36;;;;;;;3.10;0.15;;;16.10;99.90;;;;;;5093899;28;20020;-74
2022/07/22 02:17:02;;;;;;;2.78;0.10;;;16.10;99.90;;;;;;5093812;28;20035;-74
2022/07/22 02:19:28;;;;;;;4.60;0.52;;;16.10;99.90;;;;;;5092639;28;20051;-75
2022/07/22 02:21:53;;;;;;;1.95;0.25;;;16.10;99.90;;;;;;5094364;28;20039;-74
2022/07/22 02:24:19;;;;;;;4.68;0.32;;;16.10;99.90;;;;;;5092535;28;20083;-74
2022/07/22 02:26:44;;;;;;;4.45;0.90;;;16.10;99.90;;;;;;5093983;28;20016;-74
2022/07/22 02:29:10;;;;;;;2.25;0.20;;;16.60;99.90;;;;;;5093855;28;20016;-74
2022/07/22 02:31:35;;;;;;;1.58;0.13;;;16.10;99.90;;;;;;5093328;28;20039;-74
2022/07/22 02:34:01;;;;;;;3.38;0.15;;;16.10;99.90;;;;;;5093024;28;20025;-74
2022/07/22 02:36:27;;;;;;;4.65;0.00;;;16.10;99.90;;;;;;5093802;28;20114;-74
2022/07/22 02:38:52;;;;;;;4.78;0.00;;;16.10;99.90;;;;;;5093978;28;20020;-74
2022/07/22 02:41:18;;;;;;;3.83;0.00;;;16.10;99.90;;;;;;5092497;28;20020;-74
2022/07/22 02:43:43;;;;;;;2.80;0.00;;;16.10;99.90;;;;;;5092312;28;20024;-74
2022/07/22 02:46:09;;;;;;;3.13;0.20;;;16.10;99.90;;;;;;5093535;28;20031;-75
2022/07/22 02:48:34;;;;;;;3.83;0.22;;;16.10;99.90;;;;;;5093448;28;20106;-74
2022/07/22 02:51:00;;;;;;;2.60;0.10;;;16.60;99.90;;;;;;5093355;28;20024;-74
2022/07/22 02:53:26;;;;;;;2.95;0.13;;;16.20;99.90;;;;;;5093632;28;20032;-75
2022/07/22 02:55:51;;;;;;;1.60;0.00;;;16.00;99.90;;;;;;5093750;28;20020;-74
2022/07/22 02:58:17;;;;;;;2.47;0.00;;;16.00;99.90;;;;;;5093918;28;20099;-74
2022/07/22 03:00:43;;;;;;;4.57;0.00;;;16.10;99.90;;;;;;5093606;28;20013;-74
2022/07/22 03:03:08;;;;;;;1.40;0.00;;;16.10;99.90;;;;;;5092213;28;20095;-74
2022/07/22 03:05:34;;;;;;;0.98;0.00;;;16.00;99.90;;;;;;5093417;28;20016;-74
2022/07/22 03:08:00;;;;;;;2.55;0.17;;;16.00;99.90;;;;;;5093386;28;20362;-74
2022/07/22 03:10:25;;;;;;;6.28;0.00;;;16.10;99.90;;;;;;5093683;28;20027;-74
2022/07/22 03:12:51;;;;;;;1.98;0.00;;;16.10;99.90;;;;;;5093495;28;20388;-74
2022/07/22 03:15:19;;;;;;;8.93;0.20;;;16.20;99.90;;;;;;5093679;28;20028;-74
2022/07/22 03:17:44;;;;;;;1.63;0.10;;;16.10;99.90;;;;;;5093855;28;20028;-74
2022/07/22 03:20:11;;;;;;;1.33;0.10;;;16.00;99.90;;;;;;5093511;28;20487;-74
2022/07/22 03:22:37;;;;;;;4.90;0.30;;;16.00;99.90;;;;;;5093743;28;20035;-74
2022/07/22 03:25:03;;;;;;;1.48;0.00;;;16.00;99.90;;;;;;5091984;28;20454;-74
2022/07/22 03:27:29;;;;;;;1.02;0.00;;;16.00;99.90;;;;;;5092231;28;20034;-74
2022/07/22 03:29:54;;;;;;;1.50;0.20;;;16.00;99.90;;;;;;5093228;28;20020;-74
2022/07/22 03:32:20;;;;;;;2.30;0.00;;;16.00;99.90;;;;;;5093096;28;20028;-74
2022/07/22 03:34:46;;;;;;;3.58;0.20;;;16.00;99.90;;;;;;5093717;28;20024;-74
2022/07/22 03:37:12;;;;;;;4.45;0.00;;;16.00;99.90;;;;;;5091880;28;20069;-75
2022/07/22 03:39:38;;;;;;;5.78;0.75;;;16.00;99.90;;;;;;5092849;28;20470;-74
2022/07/22 03:42:04;;;;;;;0.98;0.00;;;16.20;99.90;;;;;;5093044;28;20062;-74
2022/07/22 03:44:29;;;;;;;3.70;0.28;;;16.00;99.90;;;;;;5095534;28;20024;-74
2022/07/22 03:46:55;;;;;;;3.20;0.10;;;16.00;99.90;;;;;;5096559;28;20496;-74
2022/07/22 03:49:20;;;;;;;5.47;0.20;;;16.00;99.90;;;;;;5095171;28;20573;-74
2022/07/22 03:51:46;;;;;;;2.38;0.25;;;16.00;99.90;;;;;;5096378;28;20024;-74
2022/07/22 03:54:12;;;;;;;2.75;0.22;;;16.00;99.90;;;;;;5095171;28;20516;-74
2022/07/22 03:56:38;;;;;;;2.92;0.90;;;16.00;99.90;;;;;;5096383;28;20466;-74
2022/07/22 03:59:03;;;;;;;2.08;0.10;;;16.00;99.90;;;;;;5094997;28;20111;-74
2022/07/22 04:01:29;;;;;;;5.82;0.55;;;16.00;99.90;;;;;;5096341;28;20035;-74
2022/07/22 04:03:54;;;;;;;3.25;0.00;;;16.00;99.90;;;;;;5096441;28;20027;-74
2022/07/22 04:06:20;;;;;;;4.45;0.38;;;16.00;99.90;;;;;;5094797;28;20040;-74
2022/07/22 04:08:46;;;;;;;3.05;0.05;;;16.00;99.90;;;;;;5096391;28;20028;-74
2022/07/22 04:11:11;;;;;;;2.28;0.35;;;16.10;99.90;;;;;;5096148;28;20020;-74
2022/07/22 04:13:37;;;;;;;2.00;0.30;;;16.60;99.90;;;;;;5096619;28;20020;-74
2022/07/22 04:16:03;;;;;;;1.50;0.00;;;16.00;99.90;;;;;;5095946;28;20016;-74
2022/07/22 04:18:30;;;;;;;0.80;0.08;;;16.00;99.90;;;;;;5095947;28;20071;-74
2022/07/22 04:20:56;;;;;;;1.92;0.00;;;16.00;99.90;;;;;;5096152;28;20115;-74
2022/07/22 04:23:22;;;;;;;3.88;0.38;;;16.00;99.90;;;;;;5096102;28;20056;-74
2022/07/22 04:25:47;;;;;;;3.13;0.13;;;16.10;99.90;;;;;;5094572;28;20028;-74
2022/07/22 04:28:13;;;;;;;1.55;0.00;;;16.00;99.90;;;;;;5094530;28;20077;-73
2022/07/22 04:30:38;;;;;;;3.20;0.00;;;16.10;99.90;;;;;;5095552;28;20070;-74
2022/07/22 04:33:05;;;;;;;2.50;0.00;;;16.00;99.90;;;;;;5095710;28;20074;-74
2022/07/22 04:35:31;;;;;;;4.20;0.10;;;16.10;99.90;;;;;;5094368;28;20476;-73
2022/07/22 04:37:57;;;;;;;3.20;0.00;;;16.10;99.90;;;;;;5095667;28;20051;-74
2022/07/22 04:40:23;;;;;;;1.83;0.25;;;16.10;99.90;;;;;;5095642;28;20075;-74
2022/07/22 04:42:48;;;;;;;4.30;0.30;;;16.20;99.90;;;;;;5094302;28;20117;-74
2022/07/22 04:45:14;;;;;;;2.05;0.00;;;16.20;99.90;;;;;;5095400;28;20034;-74
2022/07/22 04:47:39;;;;;;;2.78;0.20;;;16.20;99.90;;;;;;5094143;28;20019;-74
2022/07/22 04:50:05;;;;;;;2.95;0.10;;;16.30;99.90;;;;;;5095508;28;20081;-74
2022/07/22 04:52:31;;;;;;;2.15;0.00;;;16.30;99.90;;;;;;5095845;28;20020;-74
2022/07/22 04:54:58;;;;;;;1.20;0.00;;;16.30;99.90;;;;;;5094821;28;20028;-74
2022/07/22 04:57:25;;;;;;;0.57;0.10;;;16.30;99.90;;;;;;5093880;28;20103;-74
2022/07/22 04:59:52;;;;;;;2.35;0.00;;;16.30;99.90;;;;;;5095174;28;20095;-74
2022/07/22 05:02:18;;;;;;;1.70;0.10;;;16.40;99.90;;;;;;5095097;28;20107;-74
2022/07/22 05:04:43;;;;;;;1.70;0.03;;;16.40;99.90;;;;;;5093801;28;20059;-74
2022/07/22 05:07:09;;;;;;;2.08;0.00;;;16.50;99.90;;;;;;5095055;28;20032;-74
2022/07/22 05:09:35;;;;;;;1.67;0.00;;;16.60;99.90;;;;;;5093691;28;20035;-74
2022/07/22 05:12:00;;;;;;;0.43;0.10;;;16.60;99.90;;;;;;5095486;28;20093;-74
2022/07/22 05:14:26;;;;;;;2.58;0.32;;;16.60;99.90;;;;;;5093627;28;20062;-74
2022/07/22 05:16:51;;;;;;;0.68;0.05;;;16.70;99.90;;;;;;5094900;28;20020;-74
2022/07/22 05:19:17;;;;;;;2.80;0.15;;;16.70;99.90;;;;;;5093481;28;20069;-74
2022/07/22 05:21:43;;;;;;;1.63;0.10;;;16.80;99.90;;;;;;5094623;28;20110;-74
2022/07/22 05:24:09;;;;;;;3.25;0.13;;;16.80;99.90;;;;;;5094931;28;20115;-74
2022/07/22 05:26:34;;;;;;;2.08;0.10;;;16.90;99.90;;;;;;5093477;28;20465;-74
2022/07/22 05:29:00;;;;;;;1.20;0.10;;;16.90;99.90;;;;;;5094813;28;20031;-74
2022/07/22 05:31:26;;;;;;;0.88;0.00;;;17.00;99.90;;;;;;5093223;28;20086;-74
2022/07/22 05:33:52;;;;;;;1.13;0.28;;;17.10;99.90;;;;;;5093498;28;20055;-74
2022/07/22 05:36:18;;;;;;;0.80;0.00;;;17.10;99.90;;;;;;5093173;28;20016;-74
2022/07/22 05:38:44;;;;;;;0.90;0.00;;;17.20;99.90;;;;;;5094521;28;20026;-74
2022/07/22 05:41:10;;;;;;;0.98;0.00;;;17.20;99.90;;;;;;5092994;28;20386;-74
2022/07/22 05:43:36;;;;;;;1.92;0.43;;;17.30;99.90;;;;;;5093065;28;20032;-74
2022/07/22 05:46:02;;;;;;;0.40;0.00;;;17.30;99.90;;;;;;5094566;28;20020;-74
2022/07/22 05:48:28;;;;;;;1.33;0.00;;;17.40;99.90;;;;;;5092913;28;20020;-75
2022/07/22 05:50:53;;;;;;;3.38;0.00;;;17.50;99.90;;;;;;5094082;28;20393;-74
2022/07/22 05:53:19;;;;;;;1.77;0.00;;;17.60;99.90;;;;;;5092905;28;20542;-74
2022/07/22 05:55:44;;;;;;;1.00;0.00;;;17.60;99.90;;;;;;5094038;28;20033;-74
2022/07/22 05:58:10;;;;;;;0.63;0.00;;;17.70;99.90;;;;;;5092888;28;20020;-74
2022/07/22 06:00:36;;;;;;;6.15;0.40;;;18.00;99.90;;;;;;5092625;28;20034;-74
2022/07/22 06:03:02;;;;;;;2.47;0.10;;;17.80;99.90;;;;;;5092759;28;20530;-74
2022/07/22 06:05:27;;;;;;;0.43;0.00;;;17.90;99.90;;;;;;5092656;28;20032;-74
2022/07/22 06:07:53;;;;;;;9.02;0.75;;;18.00;99.90;;;;;;5092862;28;20135;-74
2022/07/22 06:10:20;;;;;;;0.15;0.00;;;18.00;99.90;;;;;;5094037;28;20048;-74
2022/07/22 06:12:46;;;;;;;1.00;0.10;;;18.10;99.90;;;;;;5092525;28;20066;-74
2022/07/22 06:15:11;;;;;;;0.57;0.00;;;18.10;99.90;;;;;;5094024;28;20024;-74
2022/07/22 06:17:37;;;;;;;2.47;0.00;;;18.10;99.90;;;;;;5093815;28;20430;-74
2022/07/22 06:20:04;;;;;;;1.30;0.10;;;18.20;99.90;;;;;;5094115;28;20057;-74
2022/07/22 06:22:29;;;;;;;1.48;0.00;;;18.20;99.90;;;;;;5092366;28;20507;-74
2022/07/22 06:24:55;;;;;;;2.47;0.00;;;18.30;99.90;;;;;;5092450;28;20036;-74
2022/07/22 06:27:21;;;;;;;1.65;0.00;;;18.30;99.90;;;;;;5092313;28;20028;-74
2022/07/22 06:29:46;;;;;;;0.55;0.00;;;18.40;99.90;;;;;;5093782;28;20032;-75
2022/07/22 06:32:12;;;;;;;1.27;0.00;;;18.50;99.90;;;;;;5093502;28;20099;-74
2022/07/22 06:34:37;;;;;;;1.42;0.10;;;18.90;99.90;;;;;;5093846;28;20023;-74
2022/07/22 06:37:03;;;;;;;1.35;0.10;;;18.50;99.90;;;;;;5093472;28;20012;-74
2022/07/22 06:39:28;;;;;;;2.17;0.00;;;18.50;99.90;;;;;;5094008;28;20017;-74
2022/07/22 06:41:54;;;;;;;1.50;0.00;;;18.60;99.90;;;;;;5092203;28;20052;-74
2022/07/22 06:44:20;;;;;;;1.45;0.00;;;18.80;99.90;;;;;;5093382;28;20020;-74
2022/07/22 06:46:45;;;;;;;3.15;0.00;;;18.80;99.90;;;;;;5093359;28;20040;-74
2022/07/22 06:49:11;;;;;;;0.50;0.00;;;18.80;99.90;;;;;;5092434;28;20016;-74
2022/07/22 06:51:37;;;;;;;1.38;0.00;;;18.90;99.90;;;;;;5093279;28;20102;-74
2022/07/22 06:54:02;;;;;;;0.00;0.00;;;19.00;99.90;;;;;;5093690;28;20016;-74
2022/07/22 06:56:28;;;;;;;1.98;0.00;;;19.10;99.90;;;;;;5093328;28;20057;-74
2022/07/22 06:58:54;;;;;;;1.45;0.00;;;19.10;99.90;;;;;;5092062;28;20024;-74
2022/07/22 07:01:19;;;;;;;0.55;0.00;;;19.30;99.90;;;;;;5093191;28;20024;-74
2022/07/22 07:03:45;;;;;;;0.45;0.00;;;19.40;99.90;;;;;;5093265;28;20157;-74
2022/07/22 07:06:11;;;;;;;4.75;0.32;;;19.30;99.90;;;;;;5100343;22;20123;-74
2022/07/22 07:08:38;;;;;;;1.45;0.00;;;19.30;99.90;;;;;;5093864;28;20492;-74
2022/07/22 07:11:04;;;;;;;2.45;0.20;;;19.40;99.90;;;;;;5093150;28;20429;-74
2022/07/22 07:13:29;;;;;;;0.55;0.00;;;19.30;99.90;;;;;;5093058;28;20109;-74
2022/07/22 07:15:55;;;;;;;0.90;0.00;;;19.30;99.90;;;;;;5093399;28;20156;-74
2022/07/22 07:18:21;;;;;;;1.98;0.00;;;19.30;99.90;;;;;;5094041;28;20074;-74
2022/07/22 07:20:46;;;;;;;0.93;0.00;;;19.40;99.90;;;;;;5097049;28;20435;-74
2022/07/22 07:23:12;;;;;;;0.30;0.00;;;19.50;99.90;;;;;;5095799;28;20058;-74
2022/07/22 07:25:38;;;;;;;3.63;0.13;;;19.60;99.90;;;;;;5097196;28;20028;-74
2022/07/22 07:28:04;;;;;;;0.70;0.10;;;19.70;99.90;;;;;;5095631;28;20074;-74
2022/07/22 07:30:30;;;;;;;0.32;0.00;;;19.90;99.90;;;;;;5097170;28;20032;-74
2022/07/22 07:32:55;;;;;;;2.47;0.00;;;19.80;99.90;;;;;;5096790;28;20047;-74
2022/07/22 07:35:26;;;;;;;0.82;0.00;;;19.90;99.90;;;;;;5096970;28;20054;-74
2022/07/22 07:37:55;;;;;;;0.65;0.00;;;19.90;99.90;;;;;;5096560;28;20024;-74
2022/07/22 07:40:20;;;;;;;1.85;0.47;;;20.00;99.90;;;;;;5097489;28;20077;-74
2022/07/22 07:42:46;;;;;;;0.17;0.00;;;19.90;99.90;;;;;;5095352;28;20123;-74
2022/07/22 07:45:12;;;;;;;1.35;0.10;;;20.00;99.90;;;;;;5097187;28;20057;-74
2022/07/22 07:47:38;;;;;;;1.88;0.00;;;20.10;99.90;;;;;;5095354;28;20028;-74
2022/07/22 07:50:07;;;;;;;1.10;0.10;;;20.10;99.90;;;;;;5095213;28;20027;-74
2022/07/22 07:52:43;;;;;;;3.72;0.47;;;20.30;99.90;;;;;;5096346;28;20024;-74
2022/07/22 07:55:09;;;;;;;3.13;0.00;;;20.30;99.90;;;;;;5096510;28;20023;-74
2022/07/22 07:57:36;;;;;;;0.55;0.10;;;20.40;99.90;;;;;;5096468;28;20024;-74
2022/07/22 08:00:05;;;;;;;3.70;0.65;;;20.40;99.90;;;;;;5096322;28;20365;-74
2022/07/22 08:02:31;;;;;;;1.35;0.45;;;20.60;99.90;;;;;;5095070;28;20012;-74
2022/07/22 08:04:56;;;;;;;2.85;0.15;;;20.70;99.90;;;;;;5096471;28;20024;-74
2022/07/22 08:07:22;;;;;;;0.32;0.00;;;20.80;99.90;;;;;;5096053;28;20085;-74
2022/07/22 08:09:48;;;;;;;3.28;0.10;;;21.00;99.90;;;;;;5096344;28;20473;-74
2022/07/22 08:12:13;;;;;;;0.57;0.00;;;21.20;99.90;;;;;;5096027;28;20550;-74
2022/07/22 08:14:39;;;;;;;1.35;0.25;;;21.50;99.90;;;;;;5094797;28;20089;-74
2022/07/22 08:17:05;;;;;;;0.75;0.00;;;21.60;99.90;;;;;;5095962;28;20103;-74
2022/07/22 08:19:31;;;;;;;1.08;0.00;;;21.60;99.90;;;;;;5095914;28;20017;-74
2022/07/22 08:21:58;;;;;;;3.30;0.00;;;21.90;99.90;;;;;;5095869;28;20477;-76
2022/07/22 08:24:24;;;;;;;0.43;0.00;;;21.70;99.90;;;;;;5094580;28;20449;-74
2022/07/22 08:26:49;;;;;;;1.65;0.00;;;21.60;99.90;;;;;;5094582;28;20055;-74
2022/07/22 08:29:16;;;;;;;0.22;0.15;;;21.50;99.90;;;;;;5095937;28;20027;-74
2022/07/22 08:31:42;;;;;;;2.78;0.00;;;21.60;99.90;;;;;;5093583;28;20024;-74
2022/07/22 08:34:07;;;;;;;2.20;0.00;;;21.60;99.90;;;;;;5095587;28;20028;-74
2022/07/22 08:36:34;;;;;;;0.68;0.05;;;21.60;99.90;;;;;;5095530;28;20069;-74
2022/07/22 08:38:59;;;;;;;1.27;0.00;;;21.80;99.90;;;;;;5096048;28;20031;-74
2022/07/22 08:41:25;;;;;;;1.02;0.00;;;21.80;99.90;;;;;;5095890;28;20024;-74
2022/07/22 08:43:52;;;;;;;1.60;0.00;;;22.20;99.90;;;;;;5095745;28;20016;-74
2022/07/22 08:46:18;;;;;;;3.35;0.00;;;22.50;99.90;;;;;;5094519;28;20024;-74
2022/07/22 08:48:45;;;;;;;4.47;0.20;;;22.70;99.90;;;;;;5095478;28;20024;-74
2022/07/22 08:51:10;;;;;;;0.63;0.10;;;23.00;99.90;;;;;;5095171;28;20021;-74
2022/07/22 08:53:36;;;;;;;0.90;0.10;;;23.60;99.90;;;;;;5095142;28;20020;-74
2022/07/22 08:56:02;;;;;;;2.50;0.57;;;23.10;99.10;;;;;;5095227;28;20091;-74
2022/07/22 08:58:27;;;;;;;1.98;0.00;;;23.10;96.40;;;;;;5095200;28;20054;-74
2022/07/22 09:01:10;;;;;;;1.42;0.00;;;23.10;96.20;;;;;;5095150;28;20556;-74
2022/07/22 09:03:51;;;;;;;1.58;0.20;;;23.00;96.40;;;;;;5095191;28;20020;-75
2022/07/22 09:06:18;;;;;;;1.35;0.10;;;23.00;96.50;;;;;;5094883;28;20031;-74
2022/07/22 09:09:13;;;;;;;0.60;0.00;;;22.90;96.30;;;;;;5093761;28;20024;-74
2022/07/22 09:11:38;;;;;;;2.72;0.00;;;22.60;96.60;;;;;;5081915;28;20547;-74
2022/07/22 09:14:04;;;;;;;0.57;0.17;;;22.60;96.30;;;;;;5094899;28;20052;-74
2022/07/22 09:16:47;;;;;;;1.33;0.20;;;22.60;95.10;;;;;;5093562;28;20062;-74
2022/07/22 09:19:13;;;;;;;1.08;0.00;;;22.70;95.70;;;;;;5095318;28;20042;-74
2022/07/22 09:21:45;;;;;;;0.30;0.00;;;22.60;94.10;;;;;;5093589;28;20041;-74
2022/07/22 09:24:31;;;;;;;1.60;0.65;;;22.30;95.10;;;;;;5093500;28;20020;-74
2022/07/22 09:26:57;;;;;;;3.28;0.30;;;22.20;96.50;;;;;;5093414;28;20020;-74
2022/07/22 09:29:23;;;;;;;1.95;0.20;;;22.10;97.70;;;;;;5094937;28;20035;-73
2022/07/22 09:31:52;;;;;;;2.35;0.30;;;21.90;96.20;;;;;;5094679;28;20020;-73
2022/07/22 09:34:30;;;;;;;2.38;0.17;;;21.80;95.80;;;;;;5093495;28;20051;-73
2022/07/22 09:36:58;;;;;;;2.30;0.10;;;21.70;96.90;;;;;;5093421;28;20034;-73
2022/07/22 09:39:31;;;;;;;2.40;0.82;;;21.50;94.40;;;;;;5094288;28;20473;-73
2022/07/22 09:42:02;;;;;;;1.23;0.60;;;21.50;97.60;;;;;;5094419;28;20069;-73
2022/07/22 09:44:28;;;;;;;1.33;0.50;;;21.60;99.40;;;;;;5092932;28;20036;-73
2022/07/22 09:46:54;;;;;;;3.13;0.40;;;21.70;98.20;;;;;;5094313;28;20035;-73
2022/07/22 09:49:33;;;;;;;1.63;0.70;;;21.70;96.40;;;;;;5094475;28;20480;-73
2022/07/22 09:52:01;;;;;;;2.28;0.35;;;21.70;96.60;;;;;;5094317;28;20072;-73
2022/07/22 09:54:28;;;;;;;2.45;0.70;;;21.80;94.00;;;;;;5094179;28;20016;-73
2022/07/22 09:56:54;;;;;;;1.85;0.75;;;21.90;97.20;;;;;;5094650;28;20020;-73
2022/07/22 09:59:19;;;;;;;4.05;0.85;;;22.20;98.20;;;;;;5094449;28;20569;-73
2022/07/22 10:01:47;;;;;;;1.38;0.50;;;22.40;96.80;;;;;;5093960;28;20419;-73
2022/07/22 10:04:14;;;;;;;3.90;0.30;;;22.50;93.20;;;;;;5094063;28;20477;-73
2022/07/22 10:06:42;;;;;;;0.68;0.15;;;22.40;92.40;;;;;;5093724;28;20032;-73
2022/07/22 10:09:08;;;;;;;1.35;0.10;;;22.40;93.00;;;;;;5092653;28;20073;-73
2022/07/22 10:11:37;;;;;;;1.88;0.35;;;22.40;92.60;;;;;;5092506;28;20032;-73
2022/07/22 10:14:03;;;;;;;;;;;22.50;93.00;;;;;;5093006;28;20040;-73
2022/07/22 10:16:29;;;;;;;1.20;0.20;;;22.50;93.00;;;;;;5093725;28;19962;-73
2022/07/22 10:18:55;;;;;;;0.80;0.10;;;22.60;94.00;;;;;;5094254;28;20023;-73
2022/07/22 10:21:34;;;;;;;1.17;0.75;;;22.80;94.10;;;;;;5093734;28;20028;-73
2022/07/22 10:24:10;;;;;;;1.95;0.20;;;22.90;95.30;;;;;;5092432;28;20031;-73
2022/07/22 10:26:51;;;;;;;1.38;0.20;;;23.00;92.70;;;;;;5093699;28;20484;-74
2022/07/22 10:29:39;;;;;;;0.43;0.20;;;23.00;93.30;;;;;;5093527;28;20035;-73
2022/07/22 10:32:22;;;;;;;2.45;0.20;;;23.10;91.60;;;;;;5093438;28;20046;-73
2022/07/22 10:35:41;;;;;;;0.75;0.28;;;23.20;91.40;;;;;;5093574;28;20140;-73
2022/07/22 10:38:08;;;;;;;0.95;0.20;;;23.10;90.20;;;;;;5092208;28;20097;-73
2022/07/22 10:40:50;;;;;;;4.28;0.25;;;23.00;92.40;;;;;;5093304;28;20016;-73
2022/07/22 10:43:17;;;;;;;3.25;0.30;;;23.10;92.60;;;;;;5092182;28;20549;-73
2022/07/22 10:45:47;;;;;;;2.40;0.40;;;23.10;90.30;;;;;;5092111;28;20024;-73
2022/07/22 10:48:16;;;;;;;1.35;0.10;;;23.10;92.00;;;;;;5093365;28;20414;-73
2022/07/22 10:50:45;;;;;;;2.05;0.20;;;23.10;91.20;;;;;;5093318;28;20017;-73
2022/07/22 10:53:22;;;;;;;1.20;0.25;;;23.20;92.00;;;;;;5093375;28;20031;-73
2022/07/22 10:56:04;;;;;;;0.63;0.10;;;23.30;92.30;;;;;;5097218;28;20428;-73
2022/07/22 10:58:54;;;;;;;2.83;0.20;;;23.20;86.90;;;;;;5097546;28;20161;-73
2022/07/22 11:01:23;;;;;;;3.20;0.25;;;23.30;90.80;;;;;;5096150;28;20488;-73
2022/07/22 11:03:50;;;;;;;0.90;0.17;;;23.70;86.90;;;;;;5096176;28;20477;-73
2022/07/22 11:06:29;;;;;;;2.58;0.35;;;24.00;88.40;;;;;;5096082;28;20032;-73
2022/07/22 11:09:02;;;;;;;0.63;0.43;;;24.40;89.70;;;;;;5096194;28;20027;-73
2022/07/22 11:11:50;;;;;;;0.25;0.10;;;24.80;88.60;;;;;;5097717;28;20110;-73
2022/07/22 11:14:26;;;;;;;2.13;0.15;;;25.00;84.60;;;;;;5097310;28;20016;-73
2022/07/22 11:16:53;;;;;;;1.67;0.50;;;25.10;82.50;;;;;;5095903;28;20020;-73
2022/07/22 11:19:21;;;;;;;2.22;0.20;;;25.00;79.80;;;;;;5095702;28;20012;-73
2022/07/22 11:21:51;;;;;;;1.10;0.30;;;25.00;82.60;;;;;;5095858;28;20024;-73
2022/07/22 11:24:16;;;;;;;2.22;0.20;;;24.80;81.40;;;;;;5097029;28;20141;-73
2022/07/22 11:26:48;;;;;;;1.80;0.22;;;25.00;83.30;;;;;;5097284;28;20492;-73
2022/07/22 11:29:29;;;;;;;0.63;0.10;;;25.30;81.30;;;;;;5097503;28;20028;-73
2022/07/22 11:31:56;;;;;;;1.75;0.38;;;25.70;80.40;;;;;;5097447;28;20066;-73
2022/07/22 11:34:22;;;;;;;2.38;0.10;;;25.40;74.50;;;;;;5097093;28;20020;-73
2022/07/22 11:36:49;;;;;;;1.00;0.43;;;25.10;77.60;;;;;;5097133;28;20024;-73
2022/07/22 11:39:19;;;;;;;0.20;0.10;;;25.40;80.70;;;;;;5097008;28;20039;-73
2022/07/22 11:41:45;;;;;;;0.75;0.15;;;25.50;78.90;;;;;;5096654;28;20024;-73
2022/07/22 11:44:11;;;;;;;1.55;0.40;;;25.30;77.90;;;;;;5096655;28;20499;-73
2022/07/22 11:46:38;;;;;;;1.42;0.10;;;25.00;77.50;;;;;;5096548;28;20028;-73
2022/07/22 11:49:06;;;;;;;2.10;0.20;;;25.00;75.80;;;;;;5096470;28;20023;-73
2022/07/22 11:51:33;;;;;;;2.97;0.73;;;24.90;78.10;;;;;;5095186;28;20396;-73
2022/07/22 11:53:59;;;;;;;0.47;0.15;;;24.80;74.40;;;;;;5095116;28;20070;-73
2022/07/22 11:56:25;;;;;;;1.63;0.30;;;25.00;76.90;;;;;;5096663;28;20020;-73
2022/07/22 11:58:56;;;;;;;2.42;0.10;;;25.30;77.90;;;;;;5096343;28;20026;-73
2022/07/22 12:01:27;;;;;;;0.40;0.20;;;25.60;77.60;;;;;;5096186;28;20028;-73
2022/07/22 12:03:58;;;;;;;1.10;0.15;;;25.40;76.00;;;;;;5095029;28;20111;-73
2022/07/22 12:06:26;;;;;;;0.70;0.20;;;25.30;70.70;;;;;;5096183;28;20059;-73
2022/07/22 12:09:01;;;;;;;0.95;0.10;;;25.20;75.10;;;;;;5096777;28;20045;-73
2022/07/22 12:11:28;;;;;;;0.88;0.32;;;25.10;75.50;;;;;;5096627;28;20028;-73
2022/07/22 12:13:54;;;;;;;1.67;0.17;;;24.90;73.90;;;;;;5096553;28;20024;-73
2022/07/22 12:16:28;;;;;;;1.58;0.50;;;25.10;75.60;;;;;;5094711;28;20015;-73
2022/07/22 12:18:55;;;;;;;2.63;0.35;;;25.40;77.00;;;;;;5096046;28;20016;-73
2022/07/22 12:21:21;;;;;;;0.73;0.10;;;25.70;75.20;;;;;;5096201;28;20028;-73
2022/07/22 12:24:07;;;;;;;0.98;0.13;;;25.90;78.20;;;;;;5094668;28;20024;-73
2022/07/22 12:26:39;;;;;;;0.40;0.10;;;26.00;76.40;;;;;;5094532;28;20028;-73
2022/07/22 12:29:17;;;;;;;1.25;0.32;;;26.10;75.40;;;;;;5095671;28;20031;-73
2022/07/22 12:31:53;;;;;;;0.37;0.10;;;26.00;74.90;;;;;;5095676;28;20032;-73
2022/07/22 12:34:46;;;;;;;1.67;0.20;;;25.90;72.20;;;;;;5096572;28;20085;-73
2022/07/22 12:37:17;;;;;;;1.10;0.10;;;25.50;70.70;;;;;;5095859;28;20024;-74
2022/07/22 12:40:19;;;;;;;1.70;0.10;;;25.50;70.20;;;;;;5094332;28;20055;-73
2022/07/22 12:42:59;;;;;;;0.28;0.03;;;25.40;73.50;;;;;;5094239;28;20028;-73
2022/07/22 12:45:27;;;;;;;3.17;0.65;;;25.60;74.70;;;;;;5096454;28;20063;-73
2022/07/22 12:47:57;;;;;;;5.65;0.00;;;25.40;71.90;;;;;;5095340;28;20027;-73
2022/07/22 12:50:37;;;;;;;0.65;0.00;;;25.50;70.80;;;;;;5095540;28;20392;-73